TKJ4KY LTFJ-LTAN
Flight info
| Callsign | TKJ4KY |
|---|---|
| Flight time | 0h 44m |
| Altitude | 35000 |
| Route | ROXUK1J/06L ROXUK UN617 ERVAG UT179 KFK UL620 OKLAM UB545 SEHIR |
| Aircraft | B738/M-SDE2E3FGHIRWXY/LB1 |
Departure
| Time | 2026-04-30 09:49 |
|---|---|
| Airport | Istanbul Sabiha Gökçen International Airport (LTFJ) |
Arrival
| Time | 2026-04-30 10:34 |
|---|---|
| Airport | Konya Airport (LTAN) |
| Time | Latitude | Longitude | Altitude | Speed | Heading |
|---|---|---|---|---|---|
| 2026-04-30 09:19 | 40.90202 | 29.30989 | 320 ft | 0 kts | 153° |
| 2026-04-30 09:38 | 40.90214 | 29.30982 | 320 ft | 2 kts | 159° |
| 2026-04-30 09:38 | 40.90228 | 29.30977 | 320 ft | 2 kts | 173° |
| 2026-04-30 09:38 | 40.90243 | 29.30976 | 320 ft | 2 kts | 186° |
| 2026-04-30 09:38 | 40.90258 | 29.30980 | 320 ft | 2 kts | 199° |
| 2026-04-30 09:39 | 40.90272 | 29.30989 | 320 ft | 2 kts | 212° |
| 2026-04-30 09:39 | 40.90284 | 29.31001 | 320 ft | 2 kts | 225° |
| 2026-04-30 09:39 | 40.90293 | 29.31016 | 320 ft | 2 kts | 238° |
| 2026-04-30 09:39 | 40.90297 | 29.31024 | 320 ft | 1 kts | 244° |
| 2026-04-30 09:40 | 40.90297 | 29.31027 | 320 ft | 0 kts | 243° |
| 2026-04-30 09:42 | 40.90297 | 29.31025 | 320 ft | 1 kts | 243° |
| 2026-04-30 09:42 | 40.90277 | 29.30974 | 320 ft | 9 kts | 244° |
| 2026-04-30 09:42 | 40.90251 | 29.30901 | 320 ft | 8 kts | 243° |
| 2026-04-30 09:43 | 40.90190 | 29.30889 | 320 ft | 15 kts | 155° |
| 2026-04-30 09:43 | 40.90094 | 29.30933 | 320 ft | 13 kts | 188° |
| 2026-04-30 09:43 | 40.90038 | 29.30847 | 320 ft | 12 kts | 244° |
| 2026-04-30 09:43 | 40.90001 | 29.30748 | 320 ft | 11 kts | 244° |
| 2026-04-30 09:44 | 40.89964 | 29.30645 | 320 ft | 14 kts | 244° |
| 2026-04-30 09:44 | 40.89916 | 29.30515 | 320 ft | 17 kts | 244° |
| 2026-04-30 09:44 | 40.89858 | 29.30356 | 320 ft | 20 kts | 243° |
| 2026-04-30 09:44 | 40.89795 | 29.30189 | 320 ft | 19 kts | 244° |
| 2026-04-30 09:45 | 40.89738 | 29.30033 | 320 ft | 18 kts | 243° |
| 2026-04-30 09:45 | 40.89684 | 29.29887 | 320 ft | 17 kts | 244° |
| 2026-04-30 09:45 | 40.89633 | 29.29750 | 320 ft | 15 kts | 244° |
| 2026-04-30 09:45 | 40.89587 | 29.29623 | 320 ft | 14 kts | 244° |
| 2026-04-30 09:46 | 40.89544 | 29.29507 | 320 ft | 13 kts | 244° |
| 2026-04-30 09:46 | 40.89506 | 29.29403 | 320 ft | 11 kts | 244° |
| 2026-04-30 09:46 | 40.89473 | 29.29312 | 320 ft | 10 kts | 244° |
| 2026-04-30 09:46 | 40.89436 | 29.29257 | 320 ft | 7 kts | 207° |
| 2026-04-30 09:47 | 40.89391 | 29.29259 | 320 ft | 5 kts | 156° |
| 2026-04-30 09:47 | 40.89362 | 29.29277 | 320 ft | 4 kts | 154° |
| 2026-04-30 09:47 | 40.89327 | 29.29299 | 320 ft | 6 kts | 154° |
| 2026-04-30 09:47 | 40.89291 | 29.29342 | 320 ft | 11 kts | 105° |
| 2026-04-30 09:48 | 40.89305 | 29.29431 | 320 ft | 2 kts | 64° |
| 2026-04-30 09:48 | 40.89306 | 29.29431 | 320 ft | 0 kts | 64° |
| 2026-04-30 09:48 | 40.89315 | 29.29456 | 320 ft | 16 kts | 64° |
| 2026-04-30 09:48 | 40.89492 | 29.29940 | 320 ft | 98 kts | 63° |
| 2026-04-30 09:49 | 40.89899 | 29.31049 | 331 ft | 165 kts | 61° |
| 2026-04-30 09:49 | 40.90418 | 29.32428 | 1109 ft | 169 kts | 62° |
| 2026-04-30 09:49 | 40.90882 | 29.33690 | 2212 ft | 153 kts | 63° |
| 2026-04-30 09:49 | 40.91351 | 29.35027 | 2639 ft | 171 kts | 63° |
| 2026-04-30 09:50 | 40.91870 | 29.36513 | 3118 ft | 186 kts | 63° |
| 2026-04-30 09:50 | 40.92314 | 29.38178 | 3569 ft | 204 kts | 84° |
| 2026-04-30 09:50 | 40.91891 | 29.40012 | 4057 ft | 222 kts | 126° |
| 2026-04-30 09:50 | 40.90616 | 29.41225 | 4521 ft | 241 kts | 160° |
| 2026-04-30 09:51 | 40.88941 | 29.41809 | 5167 ft | 254 kts | 168° |
| 2026-04-30 09:51 | 40.87194 | 29.42318 | 5785 ft | 268 kts | 169° |
| 2026-04-30 09:51 | 40.85351 | 29.42872 | 6614 ft | 274 kts | 169° |
| 2026-04-30 09:51 | 40.83506 | 29.43436 | 7484 ft | 277 kts | 169° |
| 2026-04-30 09:52 | 40.81628 | 29.44011 | 8332 ft | 281 kts | 169° |
| 2026-04-30 09:52 | 40.79718 | 29.44595 | 9164 ft | 285 kts | 169° |
| 2026-04-30 09:52 | 40.77789 | 29.45183 | 9983 ft | 289 kts | 170° |
| 2026-04-30 09:52 | 40.75777 | 29.45793 | 10553 ft | 301 kts | 170° |
| 2026-04-30 09:53 | 40.73692 | 29.46423 | 11054 ft | 317 kts | 170° |
| 2026-04-30 09:53 | 40.71485 | 29.47089 | 11496 ft | 333 kts | 169° |
| 2026-04-30 09:53 | 40.69175 | 29.47788 | 12012 ft | 346 kts | 169° |
| 2026-04-30 09:53 | 40.66817 | 29.48506 | 12784 ft | 351 kts | 169° |
| 2026-04-30 09:54 | 40.64460 | 29.49225 | 13542 ft | 355 kts | 170° |
| 2026-04-30 09:54 | 40.62017 | 29.49967 | 14308 ft | 360 kts | 170° |
| 2026-04-30 09:54 | 40.59595 | 29.50702 | 15078 ft | 364 kts | 170° |
| 2026-04-30 09:54 | 40.57115 | 29.51453 | 15807 ft | 368 kts | 171° |
| 2026-04-30 09:55 | 40.54615 | 29.52210 | 16489 ft | 372 kts | 171° |
| 2026-04-30 09:55 | 40.52097 | 29.52970 | 17189 ft | 376 kts | 171° |
| 2026-04-30 09:55 | 40.49543 | 29.53740 | 17871 ft | 380 kts | 171° |
| 2026-04-30 09:55 | 40.46937 | 29.54527 | 18516 ft | 385 kts | 171° |
| 2026-04-30 09:56 | 40.44335 | 29.55311 | 19174 ft | 388 kts | 171° |
| 2026-04-30 09:56 | 40.41680 | 29.56110 | 19839 ft | 392 kts | 171° |
| 2026-04-30 09:56 | 40.39031 | 29.56906 | 20431 ft | 396 kts | 171° |
| 2026-04-30 09:56 | 40.36331 | 29.57717 | 21024 ft | 401 kts | 171° |
| 2026-04-30 09:57 | 40.33607 | 29.58534 | 21635 ft | 404 kts | 171° |
| 2026-04-30 09:57 | 40.30856 | 29.59360 | 22205 ft | 408 kts | 171° |
| 2026-04-30 09:57 | 40.28109 | 29.60183 | 22769 ft | 411 kts | 171° |
| 2026-04-30 09:57 | 40.25297 | 29.61025 | 23310 ft | 415 kts | 171° |
| 2026-04-30 09:58 | 40.22470 | 29.61872 | 23880 ft | 418 kts | 171° |
| 2026-04-30 09:58 | 40.19625 | 29.62723 | 24416 ft | 422 kts | 171° |
| 2026-04-30 09:58 | 40.16766 | 29.63579 | 24986 ft | 424 kts | 171° |
| 2026-04-30 09:58 | 40.13884 | 29.64440 | 25467 ft | 428 kts | 171° |
| 2026-04-30 09:59 | 40.08083 | 29.66174 | 26478 ft | 433 kts | 171° |
| 2026-04-30 09:59 | 40.02321 | 29.68933 | 27364 ft | 447 kts | 158° |
| 2026-04-30 10:00 | 39.96787 | 29.72882 | 28249 ft | 456 kts | 154° |
| 2026-04-30 10:00 | 39.94016 | 29.74975 | 28728 ft | 458 kts | 154° |
| 2026-04-30 10:01 | 39.88456 | 29.79135 | 29528 ft | 465 kts | 154° |
| 2026-04-30 10:01 | 39.85646 | 29.81195 | 30055 ft | 465 kts | 155° |
| 2026-04-30 10:01 | 39.82831 | 29.83235 | 30741 ft | 461 kts | 155° |
| 2026-04-30 10:02 | 39.77262 | 29.87224 | 31834 ft | 458 kts | 155° |
| 2026-04-30 10:02 | 39.74472 | 29.89205 | 32354 ft | 456 kts | 156° |
| 2026-04-30 10:02 | 39.71702 | 29.91167 | 32893 ft | 454 kts | 156° |
| 2026-04-30 10:02 | 39.68945 | 29.93115 | 33385 ft | 453 kts | 156° |
| 2026-04-30 10:03 | 39.66173 | 29.95070 | 33866 ft | 451 kts | 156° |
| 2026-04-30 10:03 | 39.63441 | 29.96993 | 34297 ft | 451 kts | 156° |
| 2026-04-30 10:03 | 39.60696 | 29.98925 | 34702 ft | 450 kts | 156° |
| 2026-04-30 10:03 | 39.57950 | 30.00855 | 35018 ft | 450 kts | 156° |
| 2026-04-30 10:04 | 39.55160 | 30.02813 | 35072 ft | 454 kts | 156° |
| 2026-04-30 10:04 | 39.49657 | 30.06673 | 35086 ft | 450 kts | 156° |
| 2026-04-30 10:05 | 39.44146 | 30.10530 | 35092 ft | 451 kts | 156° |
| 2026-04-30 10:05 | 39.38632 | 30.14382 | 35096 ft | 451 kts | 156° |
| 2026-04-30 10:06 | 39.33127 | 30.18223 | 35099 ft | 450 kts | 156° |
| 2026-04-30 10:06 | 39.27625 | 30.22054 | 35096 ft | 449 kts | 156° |
| 2026-04-30 10:07 | 39.22144 | 30.25865 | 35103 ft | 449 kts | 156° |
| 2026-04-30 10:07 | 39.16675 | 30.29658 | 35104 ft | 450 kts | 156° |
| 2026-04-30 10:08 | 39.11132 | 30.33497 | 35106 ft | 451 kts | 155° |
| 2026-04-30 10:08 | 39.05622 | 30.37305 | 35106 ft | 451 kts | 155° |
| 2026-04-30 10:09 | 39.00113 | 30.41107 | 35107 ft | 451 kts | 155° |
| 2026-04-30 10:09 | 38.94615 | 30.44896 | 35109 ft | 450 kts | 155° |
| 2026-04-30 10:10 | 38.89114 | 30.48680 | 35114 ft | 449 kts | 155° |
| 2026-04-30 10:10 | 38.83612 | 30.52511 | 35115 ft | 450 kts | 153° |
| 2026-04-30 10:11 | 38.78609 | 30.57361 | 35115 ft | 457 kts | 139° |
| 2026-04-30 10:11 | 38.74249 | 30.63310 | 35114 ft | 459 kts | 134° |
| 2026-04-30 10:12 | 38.70102 | 30.69513 | 35116 ft | 459 kts | 133° |
| 2026-04-30 10:12 | 38.65981 | 30.75709 | 35113 ft | 459 kts | 133° |
| 2026-04-30 10:13 | 38.61827 | 30.81877 | 35117 ft | 458 kts | 134° |
| 2026-04-30 10:13 | 38.57672 | 30.87984 | 35127 ft | 457 kts | 134° |
| 2026-04-30 10:14 | 38.53484 | 30.94102 | 35136 ft | 457 kts | 134° |
| 2026-04-30 10:14 | 38.47342 | 31.03050 | 34492 ft | 440 kts | 134° |
| 2026-04-30 10:15 | 38.45301 | 31.05998 | 33950 ft | 439 kts | 134° |
| 2026-04-30 10:15 | 38.43302 | 31.08868 | 33418 ft | 438 kts | 134° |
| 2026-04-30 10:15 | 38.41265 | 31.11784 | 32878 ft | 436 kts | 134° |
| 2026-04-30 10:15 | 38.39272 | 31.14633 | 32346 ft | 435 kts | 134° |
| 2026-04-30 10:16 | 38.37257 | 31.17513 | 31813 ft | 433 kts | 134° |
| 2026-04-30 10:16 | 38.35274 | 31.20344 | 31286 ft | 431 kts | 134° |
| 2026-04-30 10:16 | 38.33274 | 31.23200 | 30752 ft | 429 kts | 133° |
| 2026-04-30 10:17 | 38.29327 | 31.28830 | 29683 ft | 425 kts | 133° |
| 2026-04-30 10:17 | 38.25431 | 31.34379 | 28634 ft | 420 kts | 134° |
| 2026-04-30 10:17 | 38.23490 | 31.37145 | 28118 ft | 417 kts | 133° |
| 2026-04-30 10:18 | 38.21581 | 31.39862 | 27602 ft | 414 kts | 133° |
| 2026-04-30 10:18 | 38.19654 | 31.42598 | 27085 ft | 412 kts | 133° |
| 2026-04-30 10:18 | 38.17769 | 31.45272 | 26573 ft | 409 kts | 133° |
| 2026-04-30 10:19 | 38.14014 | 31.50594 | 25572 ft | 404 kts | 133° |
| 2026-04-30 10:19 | 38.12141 | 31.53247 | 25066 ft | 402 kts | 133° |
| 2026-04-30 10:19 | 38.10313 | 31.55916 | 24548 ft | 400 kts | 131° |
| 2026-04-30 10:19 | 38.08598 | 31.58668 | 24029 ft | 398 kts | 129° |
| 2026-04-30 10:20 | 38.06869 | 31.61384 | 23474 ft | 396 kts | 131° |
| 2026-04-30 10:20 | 38.03284 | 31.66604 | 22486 ft | 390 kts | 134° |
| 2026-04-30 10:20 | 38.01488 | 31.69145 | 21993 ft | 387 kts | 134° |
| 2026-04-30 10:21 | 37.99714 | 31.71648 | 21520 ft | 383 kts | 134° |
| 2026-04-30 10:21 | 37.97926 | 31.74170 | 21023 ft | 381 kts | 134° |
| 2026-04-30 10:21 | 37.96186 | 31.76627 | 20550 ft | 378 kts | 134° |
| 2026-04-30 10:21 | 37.94427 | 31.79112 | 20070 ft | 375 kts | 133° |
| 2026-04-30 10:22 | 37.92704 | 31.81549 | 19594 ft | 373 kts | 133° |
| 2026-04-30 10:22 | 37.90984 | 31.83980 | 19125 ft | 370 kts | 133° |
| 2026-04-30 10:22 | 37.89289 | 31.86378 | 18686 ft | 367 kts | 134° |
| 2026-04-30 10:22 | 37.87587 | 31.88786 | 18230 ft | 364 kts | 134° |
| 2026-04-30 10:23 | 37.85918 | 31.91146 | 17780 ft | 361 kts | 133° |
| 2026-04-30 10:23 | 37.84245 | 31.93511 | 17321 ft | 359 kts | 134° |
| 2026-04-30 10:23 | 37.82597 | 31.95838 | 16867 ft | 357 kts | 133° |
| 2026-04-30 10:23 | 37.80942 | 31.98173 | 16413 ft | 356 kts | 133° |
| 2026-04-30 10:24 | 37.79288 | 32.00503 | 15952 ft | 354 kts | 133° |
| 2026-04-30 10:24 | 37.77659 | 32.02800 | 15499 ft | 351 kts | 133° |
| 2026-04-30 10:24 | 37.76049 | 32.05068 | 15041 ft | 349 kts | 133° |
| 2026-04-30 10:24 | 37.74439 | 32.07334 | 14586 ft | 347 kts | 133° |
| 2026-04-30 10:25 | 37.72830 | 32.09595 | 14134 ft | 344 kts | 133° |
| 2026-04-30 10:25 | 37.71240 | 32.11829 | 13690 ft | 341 kts | 133° |
| 2026-04-30 10:25 | 37.69667 | 32.14035 | 13250 ft | 338 kts | 133° |
| 2026-04-30 10:25 | 37.68096 | 32.16238 | 12818 ft | 335 kts | 133° |
| 2026-04-30 10:26 | 37.66597 | 32.18485 | 12362 ft | 334 kts | 127° |
| 2026-04-30 10:26 | 37.65479 | 32.21019 | 11927 ft | 333 kts | 109° |
| 2026-04-30 10:26 | 37.65173 | 32.23863 | 11524 ft | 331 kts | 89° |
| 2026-04-30 10:26 | 37.65387 | 32.26759 | 11093 ft | 329 kts | 82° |
| 2026-04-30 10:27 | 37.65733 | 32.29557 | 10670 ft | 326 kts | 81° |
| 2026-04-30 10:27 | 37.66083 | 32.32396 | 10223 ft | 324 kts | 82° |
| 2026-04-30 10:27 | 37.66376 | 32.35186 | 9930 ft | 317 kts | 83° |
| 2026-04-30 10:27 | 37.66620 | 32.37896 | 9612 ft | 311 kts | 84° |
| 2026-04-30 10:28 | 37.66852 | 32.40608 | 9158 ft | 310 kts | 83° |
| 2026-04-30 10:28 | 37.67287 | 32.43246 | 8771 ft | 308 kts | 71° |
| 2026-04-30 10:28 | 37.68425 | 32.45458 | 8516 ft | 301 kts | 41° |
| 2026-04-30 10:28 | 37.70231 | 32.46692 | 8165 ft | 297 kts | 14° |
| 2026-04-30 10:29 | 37.72284 | 32.46992 | 7664 ft | 299 kts | 1° |
| 2026-04-30 10:29 | 37.74341 | 32.47097 | 7327 ft | 290 kts | 4° |
| 2026-04-30 10:29 | 37.76317 | 32.47561 | 6999 ft | 283 kts | 17° |
| 2026-04-30 10:29 | 37.78099 | 32.48405 | 6817 ft | 270 kts | 20° |
| 2026-04-30 10:30 | 37.79849 | 32.49174 | 6669 ft | 262 kts | 17° |
| 2026-04-30 10:30 | 37.81578 | 32.49818 | 6354 ft | 258 kts | 15° |
| 2026-04-30 10:30 | 37.83283 | 32.50432 | 6011 ft | 247 kts | 15° |
| 2026-04-30 10:30 | 37.84875 | 32.51028 | 5701 ft | 229 kts | 16° |
| 2026-04-30 10:31 | 37.86328 | 32.51578 | 5426 ft | 211 kts | 17° |
| 2026-04-30 10:31 | 37.87688 | 32.52092 | 5138 ft | 196 kts | 17° |
| 2026-04-30 10:31 | 37.88955 | 32.52569 | 4902 ft | 181 kts | 17° |
| 2026-04-30 10:31 | 37.90124 | 32.53010 | 4657 ft | 174 kts | 16° |
| 2026-04-30 10:32 | 37.91281 | 32.53442 | 4438 ft | 169 kts | 18° |
| 2026-04-30 10:32 | 37.92391 | 32.53859 | 4221 ft | 168 kts | 15° |
| 2026-04-30 10:32 | 37.93528 | 32.54271 | 4005 ft | 171 kts | 19° |
| 2026-04-30 10:32 | 37.94654 | 32.54727 | 3767 ft | 168 kts | 17° |
| 2026-04-30 10:33 | 37.95770 | 32.55132 | 3552 ft | 163 kts | 18° |
| 2026-04-30 10:33 | 37.96844 | 32.55543 | 3381 ft | 157 kts | 19° |
| 2026-04-30 10:33 | 37.97836 | 32.55923 | 3390 ft | 138 kts | 16° |
| 2026-04-30 10:33 | 37.98448 | 32.56155 | 3403 ft | 56 kts | 16° |
| 2026-04-30 10:34 | 37.98689 | 32.56245 | 3404 ft | 10 kts | 24° |
| 2026-04-30 10:34 | 37.98696 | 32.56338 | 3401 ft | 13 kts | 106° |
| 2026-04-30 10:34 | 37.98663 | 32.56459 | 3396 ft | 16 kts | 106° |